This is the latest recevied weather packets stored in our database for station/object kj4yre. If no packets are shown the sender has not sent any weather packets the latest 10 day(s).
| Time | Temp. | Humidity | Pressure | Rain* | Wind** | Luminosity | Snow |
|---|---|---|---|---|---|---|---|
| 1777540635 | 15° C | 100% | 1007.4 hPa | 0 mm | - | - | - |
| 1777540336 | 15° C | 100% | 1007.3 hPa | 0 mm | - | - | - |
| 1777539435 | 13.89° C | 100% | 1007.2 hPa | 0 mm | - | - | - |
| 1777539138 | 13.89° C | 100% | 1007.2 hPa | 0 mm | - | - | - |
| 1777538536 | 13.33° C | 100% | 1007.1 hPa | 0 mm | - | - | - |
| 1777536136 | 14.44° C | 100% | 1007.1 hPa | 0 mm | - | - | - |
| 1777533135 | 14.44° C | 100% | 1007 hPa | 0 mm | - | - | - |
| 1777531937 | 14.44° C | 100% | 1006.8 hPa | 0 mm | - | - | - |
| 1777531034 | 15° C | 100% | 1007 hPa | 0 mm | - | - | - |
| 1777530137 | 15° C | 100% | 1007 hPa | 0 mm | - | - | - |
| 1777528636 | 16.11° C | 97% | 1007.7 hPa | 0 mm | - | - | - |
| 1777528036 | 16.11° C | 97% | 1007.7 hPa | 0 mm | - | - | - |
| 1777527436 | 16.11° C | 97% | 1008 hPa | 0 mm | - | - | - |
| 1777526537 | 16.11° C | 97% | 1008.1 hPa | 0 mm | - | - | - |
| 1777525035 | 16.11° C | 97% | 1008.4 hPa | 0 mm | - | - | - |
| 1777522936 | 15.56° C | 95% | 1008.5 hPa | 0 mm | - | - | - |
| 1777522637 | 15.56° C | 95% | 1008.5 hPa | 0 mm | - | - | - |
| 1777520835 | 16.11° C | 94% | 1008.7 hPa | 0 mm | - | - | - |
| 1777520536 | 15.56° C | 93% | 1008.7 hPa | 0 mm | - | - | - |
| 1777520237 | 16.11° C | 95% | 1008.6 hPa | 0 mm | - | - | - |
| 1777519035 | 16.11° C | 91% | 1009 hPa | 0 mm | - | - | - |
| 1777518738 | 16.11° C | 91% | 1009.1 hPa | 0 mm | - | - | - |
| 1777517236 | 16.11° C | 91% | 1009.2 hPa | 0 mm | - | - | - |
| 1777516036 | 16.11° C | 91% | 1009.1 hPa | 0 mm | - | - | - |
| 1777515436 | 16.11° C | 91% | 1009 hPa | 0 mm | - | - | - |
* Rain latest hour (hover to see other rain measurements)
** Current wind speed in m/s (hover to see current wind gust speed)